createdAt,value
2018-02-07T00:00:15.903Z,89.9
2018-02-07T00:05:16.034Z,89.7
2018-02-07T00:10:15.870Z,90
2018-02-07T00:15:15.913Z,89.8
2018-02-07T00:20:15.760Z,89.8
2018-02-07T00:25:15.903Z,89.5
2018-02-07T00:30:15.889Z,89.9
2018-02-07T00:35:15.932Z,89.9
2018-02-07T00:40:15.972Z,89.7
2018-02-07T00:45:15.902Z,89.3
2018-02-07T00:50:15.759Z,89.6
2018-02-07T00:55:15.978Z,89.7
2018-02-07T01:00:15.931Z,90
2018-02-07T01:05:15.781Z,89.9
2018-02-07T01:10:15.984Z,89.7
2018-02-07T01:15:15.788Z,90.1
2018-02-07T01:20:15.793Z,90
2018-02-07T01:25:15.991Z,89.9
2018-02-07T01:30:16.006Z,90.3
2018-02-07T01:35:15.932Z,89.9
2018-02-07T01:40:15.965Z,89.8
2018-02-07T01:45:15.805Z,90.1
2018-02-07T01:50:15.826Z,90.2
2018-02-07T01:55:15.946Z,90.2
2018-02-07T02:00:15.809Z,90.2
2018-02-07T02:05:16.034Z,90
2018-02-07T02:10:15.935Z,90.1
2018-02-07T02:15:16.006Z,90.2
2018-02-07T02:20:15.816Z,90.4
2018-02-07T02:25:15.957Z,90.2
2018-02-07T02:30:16.038Z,89.9
2018-02-07T02:35:16.037Z,90
2018-02-07T02:40:15.957Z,90.1
2018-02-07T02:45:16.010Z,90.4
2018-02-07T02:50:16.038Z,90.5
2018-02-07T02:55:15.851Z,90
2018-02-07T03:00:18.548Z,90.2
2018-02-07T03:05:23.633Z,90.5
2018-02-07T03:10:18.501Z,90.3
2018-02-07T03:15:18.756Z,90
2018-02-07T03:20:18.545Z,90.3
2018-02-07T03:25:18.723Z,89.9
2018-02-07T03:30:21.771Z,90.3
2018-02-07T03:35:18.681Z,90.1
2018-02-07T03:40:18.730Z,90
2018-02-07T03:45:18.766Z,90
2018-02-07T03:50:18.693Z,90
2018-02-07T03:55:18.566Z,89.8
2018-02-07T04:00:18.553Z,89.9
2018-02-07T04:05:18.804Z,89.7
2018-02-07T04:10:18.853Z,89.5
2018-02-07T04:15:18.750Z,89.3
2018-02-07T04:20:18.760Z,89.2
2018-02-07T04:25:18.864Z,89.2
2018-02-07T04:30:18.991Z,89.3
2018-02-07T04:35:18.763Z,89.4
2018-02-07T04:40:18.749Z,89.3
2018-02-07T04:45:18.762Z,89.1
2018-02-07T04:50:18.751Z,89.7
2018-02-07T04:55:18.779Z,89.5
2018-02-07T05:00:18.782Z,89.7
2018-02-07T05:05:18.781Z,89.7
2018-02-07T05:10:20.328Z,89.4
2018-02-07T05:15:18.795Z,89.6
2018-02-07T05:20:18.800Z,89.8
2018-02-07T05:25:19.096Z,90
2018-02-07T05:30:18.903Z,90.2
2018-02-07T05:35:18.755Z,89.9
2018-02-07T05:40:18.788Z,90
2018-02-07T05:45:18.791Z,90
2018-02-07T05:50:18.922Z,90
2018-02-07T05:55:18.804Z,90.4
2018-02-07T06:00:18.810Z,90.4
2018-02-07T06:05:18.918Z,90.3
2018-02-07T06:10:18.816Z,90.3
2018-02-07T06:15:18.923Z,90.5
2018-02-07T06:20:18.811Z,90.6
2018-02-07T06:25:18.929Z,90.4
2018-02-07T06:30:18.806Z,90.3
2018-02-07T06:35:18.831Z,90.4
2018-02-07T06:40:18.996Z,90.8
2018-02-07T06:45:19.059Z,90.7
2018-02-07T06:50:18.999Z,90.6
2018-02-07T06:55:18.829Z,90.9
2018-02-07T07:00:19.073Z,90.9
2018-02-07T07:05:18.971Z,91.1
2018-02-07T07:10:18.951Z,91.2
2018-02-07T07:15:19.048Z,91.2
2018-02-07T07:20:18.950Z,91.1
2018-02-07T07:25:19.071Z,91.5
2018-02-07T07:30:19.071Z,91.4
2018-02-07T07:35:19.185Z,91.8
2018-02-07T07:40:19.013Z,91.7
2018-02-07T07:45:18.860Z,92
2018-02-07T07:50:21.651Z,92.2
2018-02-07T07:55:26.733Z,92.4
2018-02-07T08:00:21.856Z,92.8
2018-02-07T08:05:21.668Z,93
2018-02-07T08:10:21.889Z,93.2
2018-02-07T08:15:21.800Z,93.2
2018-02-07T08:20:21.837Z,93.8
2018-02-07T08:25:21.753Z,93.7
2018-02-07T08:30:21.804Z,93.8
2018-02-07T08:35:21.835Z,94.8
2018-02-07T08:40:21.876Z,95.2
2018-02-07T08:45:21.796Z,95.4
2018-02-07T08:50:21.835Z,96.1
2018-02-07T08:55:21.691Z,96.2
2018-02-07T09:00:21.674Z,96.1
2018-02-07T09:05:21.853Z,96.3
2018-02-07T09:10:21.876Z,96.5
2018-02-07T09:15:21.733Z,96.4
2018-02-07T09:20:21.956Z,95.8
2018-02-07T09:25:22.020Z,95.2
2018-02-07T09:30:22.032Z,95.4
2018-02-07T09:35:21.975Z,94.2
2018-02-07T09:40:21.966Z,94
2018-02-07T09:45:22.009Z,93
2018-02-07T09:50:21.952Z,93.2
2018-02-07T09:55:21.961Z,92.3
2018-02-07T10:00:22.008Z,91.2
2018-02-07T10:05:21.927Z,92
2018-02-07T10:10:21.961Z,91.5
2018-02-07T10:15:22.044Z,90.5
2018-02-07T10:20:22.031Z,89.8
2018-02-07T10:25:21.977Z,89.3
2018-02-07T10:30:22.013Z,89.3
2018-02-07T10:35:22.034Z,89
2018-02-07T10:40:22.057Z,89
2018-02-07T10:45:22.033Z,89.5
2018-02-07T10:50:22.064Z,90.4
2018-02-07T10:55:22.987Z,90
2018-02-07T11:00:22.013Z,90.2
2018-02-07T11:05:22.066Z,90.3
2018-02-07T11:10:21.957Z,90.6
2018-02-07T11:15:21.996Z,90.5
2018-02-07T11:20:22.076Z,90.8
2018-02-07T11:25:22.125Z,90.7
2018-02-07T11:30:21.989Z,90.9
2018-02-07T11:35:22.059Z,90.5
2018-02-07T11:40:21.870Z,90.4
2018-02-07T11:45:21.988Z,91.1
2018-02-07T11:50:22.037Z,90
2018-02-07T11:55:21.865Z,89.9
2018-02-07T12:00:22.116Z,89.9
2018-02-07T12:05:22.032Z,90.3
2018-02-07T12:10:21.820Z,88.9
2018-02-07T12:15:21.900Z,89.4
2018-02-07T12:20:22.017Z,89.3
2018-02-07T12:25:22.082Z,89.2
2018-02-07T12:30:22.096Z,89.8
2018-02-07T12:35:21.884Z,90.6
2018-02-07T12:40:25.274Z,90.9
2018-02-07T12:45:30.274Z,90
2018-02-07T12:50:25.214Z,89.7
2018-02-07T12:55:25.239Z,90
2018-02-07T13:00:25.157Z,89.7
2018-02-07T13:05:25.216Z,89.3
2018-02-07T13:10:25.232Z,89.4
2018-02-07T13:15:25.034Z,90.3
2018-02-07T13:20:25.185Z,89.9
2018-02-07T13:25:25.223Z,90.3
2018-02-07T13:30:25.156Z,89.3
2018-02-07T13:35:25.036Z,89.4
2018-02-07T13:40:25.250Z,89.3
2018-02-07T13:45:25.049Z,88.5
2018-02-07T13:50:25.050Z,89.3
2018-02-07T13:55:25.167Z,89.2
2018-02-07T14:00:25.158Z,89.4
2018-02-07T14:05:25.336Z,89.7
2018-02-07T14:10:25.209Z,89.4
2018-02-07T14:15:25.108Z,90
2018-02-07T14:20:25.311Z,89.4
2018-02-07T14:25:25.215Z,89.5
2018-02-07T14:30:25.259Z,90
2018-02-07T14:35:25.284Z,89
2018-02-07T14:40:25.317Z,88.9
2018-02-07T14:45:25.265Z,89.1
2018-02-07T14:50:25.341Z,90.1
2018-02-07T14:55:25.321Z,89.8
2018-02-07T15:00:25.176Z,89.3
2018-02-07T15:05:25.304Z,89.2
2018-02-07T15:10:25.329Z,89.3
2018-02-07T15:15:25.244Z,88.9
2018-02-07T15:20:25.289Z,89.5
2018-02-07T15:25:25.347Z,88.8
2018-02-07T15:30:25.249Z,89.2
2018-02-07T15:35:25.134Z,89.5
2018-02-07T15:40:25.141Z,89.1
2018-02-07T15:45:25.148Z,89.6
2018-02-07T15:50:25.148Z,90.6
2018-02-07T15:55:25.550Z,91
2018-02-07T16:00:25.169Z,90.9
2018-02-07T16:05:25.164Z,91.5
2018-02-07T16:10:25.162Z,91.5
2018-02-07T16:15:25.148Z,92
2018-02-07T16:20:25.258Z,91.1
2018-02-07T16:25:25.192Z,91.2
2018-02-07T16:30:25.706Z,92.4
2018-02-07T16:35:25.202Z,92
2018-02-07T16:40:25.228Z,91.9
2018-02-07T16:45:26.206Z,93.3
2018-02-07T16:50:25.182Z,93.7
2018-02-07T16:55:25.145Z,94.1
2018-02-07T17:00:25.361Z,93.4
2018-02-07T17:05:25.409Z,93.6
2018-02-07T17:10:25.308Z,93.8
2018-02-07T17:15:25.207Z,94
2018-02-07T17:20:25.191Z,93.7
2018-02-07T17:25:25.256Z,94.1
2018-02-07T17:30:26.849Z,94.4
2018-02-07T17:35:32.062Z,93.1
2018-02-07T17:40:27.002Z,92.9
2018-02-07T17:45:26.875Z,93.1
2018-02-07T17:50:27.029Z,93.7
2018-02-07T17:55:26.882Z,92.9
2018-02-07T18:00:26.827Z,92.9
2018-02-07T18:05:26.891Z,94
2018-02-07T18:10:26.995Z,94.4
2018-02-07T18:15:26.886Z,93.4
2018-02-07T18:20:26.933Z,93.3
2018-02-07T18:25:28.070Z,93.3
2018-02-07T18:30:26.941Z,93.8
2018-02-07T18:35:27.129Z,94
2018-02-07T18:40:26.847Z,93.8
2018-02-07T18:45:26.921Z,93.7
2018-02-07T18:50:27.527Z,94.1
2018-02-07T18:55:26.951Z,94
2018-02-07T19:00:27.865Z,94.2
2018-02-07T19:05:26.921Z,93.7
2018-02-07T19:10:26.913Z,93.6
2018-02-07T19:15:26.915Z,94.1
2018-02-07T19:20:26.887Z,94.7
2018-02-07T19:25:26.942Z,93.7
2018-02-07T19:30:26.932Z,93.8
2018-02-07T19:35:26.933Z,94.5
2018-02-07T19:40:27.174Z,95.2
2018-02-07T19:45:27.010Z,94.8
2018-02-07T19:50:26.930Z,94.8
2018-02-07T19:55:27.855Z,94.6
2018-02-07T20:00:26.929Z,94.9
2018-02-07T20:05:27.019Z,95.5
2018-02-07T20:10:26.958Z,94.9
2018-02-07T20:15:26.963Z,94.9
2018-02-07T20:20:26.983Z,94.6
2018-02-07T20:25:27.508Z,94.5
2018-02-07T20:30:26.958Z,94.6
2018-02-07T20:35:27.346Z,95.5
2018-02-07T20:40:27.513Z,95.6
2018-02-07T20:45:27.400Z,96.1
2018-02-07T20:50:27.719Z,95.9
2018-02-07T20:55:27.639Z,95.4
2018-02-07T21:00:27.887Z,96
2018-02-07T21:05:27.851Z,95.9
2018-02-07T21:10:27.878Z,95.5
2018-02-07T21:15:28.002Z,95.4
2018-02-07T21:20:28.028Z,95
2018-02-07T21:25:27.865Z,95.3
2018-02-07T21:30:27.878Z,95.6
2018-02-07T21:35:28.040Z,94.8
2018-02-07T21:40:27.870Z,94.4
2018-02-07T21:45:27.921Z,94.3
2018-02-07T21:50:27.985Z,94.3
2018-02-07T21:55:28.278Z,94.3
2018-02-07T22:00:28.074Z,95.1
2018-02-07T22:05:28.116Z,94.5
2018-02-07T22:10:28.081Z,94.6
2018-02-07T22:15:28.121Z,94.4
2018-02-07T22:20:30.720Z,94.3
2018-02-07T22:25:36.086Z,94.5
2018-02-07T22:30:30.842Z,94.9
2018-02-07T22:35:30.900Z,95
2018-02-07T22:40:30.745Z,95.3
2018-02-07T22:45:30.982Z,95.3
2018-02-07T22:50:30.708Z,95.7
2018-02-07T22:55:30.962Z,95
2018-02-07T23:00:30.843Z,94.9
2018-02-07T23:05:30.902Z,94.6
2018-02-07T23:10:30.890Z,94.4
2018-02-07T23:15:30.755Z,94.6
2018-02-07T23:20:30.774Z,95
2018-02-07T23:25:31.047Z,95.3
2018-02-07T23:30:31.034Z,94.5
2018-02-07T23:35:31.038Z,94.3
2018-02-07T23:40:31.158Z,94.6
2018-02-07T23:45:31.074Z,94.3
2018-02-07T23:50:31.068Z,94.7
2018-02-07T23:55:31.163Z,94.9
